createdAt,value
2019-05-29T00:02:29.884Z,100631.69
2019-05-29T00:05:02.158Z,100631.00
2019-05-29T00:07:34.640Z,100627.03
2019-05-29T00:10:08.775Z,100626.87
2019-05-29T00:12:40.629Z,100629.64
2019-05-29T00:15:13.004Z,100629.82
2019-05-29T00:17:45.177Z,100629.49
2019-05-29T00:20:18.575Z,100633.97
2019-05-29T00:22:50.845Z,100630.00
2019-05-29T00:25:22.959Z,100631.02
2019-05-29T00:27:55.497Z,100627.23
2019-05-29T00:30:28.176Z,100630.17
2019-05-29T00:33:00.143Z,100631.05
2019-05-29T00:35:32.517Z,100626.55
2019-05-29T00:38:04.690Z,100627.93
2019-05-29T00:40:37.582Z,100623.77
2019-05-29T00:43:09.440Z,100626.20
2019-05-29T00:45:41.721Z,100627.77
2019-05-29T00:48:14.124Z,100625.86
2019-05-29T00:50:46.270Z,100619.28
2019-05-29T00:53:18.638Z,100610.98
2019-05-29T00:55:50.716Z,100614.45
2019-05-29T00:58:25.650Z,100608.41
2019-05-29T01:00:57.820Z,100606.67
2019-05-29T01:03:29.780Z,100598.74
2019-05-29T01:06:02.362Z,100599.58
2019-05-29T01:08:34.323Z,100601.13
2019-05-29T01:11:06.630Z,100598.03
2019-05-29T01:13:38.978Z,100599.25
2019-05-29T01:16:11.392Z,100602.37
2019-05-29T01:18:43.435Z,100607.36
2019-05-29T01:21:15.989Z,100612.20
2019-05-29T01:23:47.970Z,100607.88
2019-05-29T01:26:20.896Z,100613.05
2019-05-29T01:28:53.137Z,100611.67
2019-05-29T01:31:25.616Z,100605.30
2019-05-29T01:33:57.805Z,100608.77
2019-05-29T01:36:30.056Z,100606.16
2019-05-29T01:39:02.027Z,100614.64
2019-05-29T01:41:34.912Z,100609.11
2019-05-29T01:44:06.888Z,100613.95
2019-05-29T01:46:39.363Z,100611.00
2019-05-29T01:49:11.537Z,100615.47
2019-05-29T01:51:44.015Z,100618.23
2019-05-29T01:54:16.096Z,100618.09
2019-05-29T01:56:48.286Z,100622.41
2019-05-29T01:59:20.217Z,100629.81
2019-05-29T02:01:52.496Z,100634.33
2019-05-29T02:04:24.664Z,100630.70
2019-05-29T02:06:56.630Z,100640.53
2019-05-29T02:09:28.617Z,100637.78
2019-05-29T02:12:00.559Z,100636.05
2019-05-29T02:14:32.938Z,100646.77
2019-05-29T02:17:05.315Z,100646.92
2019-05-29T02:19:37.486Z,100651.08
2019-05-29T02:22:09.758Z,100649.37
2019-05-29T02:24:42.451Z,100657.31
2019-05-29T02:27:17.307Z,100659.03
2019-05-29T02:29:50.980Z,100654.02
2019-05-29T02:32:23.646Z,100652.12
2019-05-29T02:34:56.048Z,100651.77
2019-05-29T02:37:29.036Z,100647.57
2019-05-29T02:40:01.203Z,100643.05
2019-05-29T02:42:34.604Z,100643.38
2019-05-29T02:45:07.593Z,100641.62
2019-05-29T02:47:39.862Z,100643.67
2019-05-29T02:50:11.932Z,100642.56
2019-05-29T02:52:44.204Z,100644.11
2019-05-29T02:55:16.281Z,100645.48
2019-05-29T02:57:48.652Z,100645.97
2019-05-29T03:00:25.547Z,100649.59
2019-05-29T03:02:57.399Z,100651.77
2019-05-29T03:05:29.915Z,100650.81
2019-05-29T03:08:01.948Z,100653.30
2019-05-29T03:10:34.219Z,100655.66
2019-05-29T03:13:07.002Z,100655.42
2019-05-29T03:15:39.077Z,100657.63
2019-05-29T03:18:11.245Z,100655.81
2019-05-29T03:20:43.252Z,100649.31
2019-05-29T03:23:16.715Z,100644.83
2019-05-29T03:25:48.992Z,100652.80
2019-05-29T03:28:21.465Z,100660.99
2019-05-29T03:30:53.656Z,100656.36
2019-05-29T03:33:28.588Z,100651.17
2019-05-29T03:35:59.706Z,100648.94
2019-05-29T03:38:32.726Z,100640.63
2019-05-29T03:41:05.089Z,100644.03
2019-05-29T03:43:38.778Z,100638.22
2019-05-29T03:46:29.150Z,100646.27
2019-05-29T03:48:45.073Z,100648.70
2019-05-29T03:51:17.398Z,100645.14
2019-05-29T03:53:49.626Z,100636.94
2019-05-29T03:56:21.700Z,100637.86
2019-05-29T03:58:53.964Z,100639.97
2019-05-29T04:01:26.780Z,100641.73
2019-05-29T04:03:58.815Z,100642.30
2019-05-29T04:06:31.304Z,100641.97
2019-05-29T04:09:03.159Z,100650.76
2019-05-29T04:11:37.891Z,100651.25
2019-05-29T04:14:09.963Z,100648.05
2019-05-29T04:16:58.459Z,100646.86
2019-05-29T04:19:16.063Z,100649.92
2019-05-29T04:21:47.909Z,100650.29
2019-05-29T04:24:19.885Z,100653.21
2019-05-29T04:26:51.946Z,100653.66
2019-05-29T04:29:24.842Z,100653.69
2019-05-29T04:31:56.597Z,100659.00
2019-05-29T04:34:29.582Z,100661.84
2019-05-29T04:37:07.026Z,100658.48
2019-05-29T04:39:36.965Z,100659.67
2019-05-29T04:42:08.870Z,100671.37
2019-05-29T04:44:41.389Z,100671.73
2019-05-29T04:47:13.520Z,100672.83
2019-05-29T04:49:45.793Z,100674.02
2019-05-29T04:52:18.785Z,100686.50
2019-05-29T04:54:50.653Z,100690.38
2019-05-29T04:57:23.029Z,100685.15
2019-05-29T04:59:55.198Z,100680.75
2019-05-29T05:02:27.265Z,100674.63
2019-05-29T05:04:59.540Z,100671.84
2019-05-29T05:07:31.299Z,100671.63
2019-05-29T05:10:03.367Z,100681.41
2019-05-29T05:12:37.728Z,100681.34
2019-05-29T05:15:10.857Z,100679.11
2019-05-29T05:17:42.855Z,100680.31
2019-05-29T05:20:15.021Z,100672.16
2019-05-29T05:22:47.293Z,100671.92
2019-05-29T05:25:19.587Z,100680.77
2019-05-29T05:27:51.749Z,100683.77
2019-05-29T05:30:24.178Z,100680.23
2019-05-29T05:32:56.599Z,100683.52
2019-05-29T05:35:29.086Z,100680.47
2019-05-29T05:38:01.145Z,100686.17
2019-05-29T05:40:36.990Z,100687.61
2019-05-29T05:43:07.227Z,100684.81
2019-05-29T05:45:39.546Z,100689.08
2019-05-29T05:48:11.380Z,100694.16
2019-05-29T05:50:43.264Z,100694.75
2019-05-29T05:53:15.420Z,100685.48
2019-05-29T05:55:48.003Z,100687.08
2019-05-29T05:58:19.934Z,100684.55
2019-05-29T06:00:52.310Z,100704.55
2019-05-29T06:03:24.385Z,100709.77
2019-05-29T06:05:56.345Z,100699.06
2019-05-29T06:08:28.614Z,100701.70
2019-05-29T06:11:00.888Z,100709.16
2019-05-29T06:13:34.109Z,100708.98
2019-05-29T06:16:06.191Z,100701.08
2019-05-29T06:18:38.646Z,100710.08
2019-05-29T06:21:10.709Z,100713.19
2019-05-29T06:23:43.434Z,100722.28
2019-05-29T06:26:16.769Z,100730.69
2019-05-29T06:28:48.924Z,100727.48
2019-05-29T06:31:20.899Z,100733.49
2019-05-29T06:33:53.058Z,100731.09
2019-05-29T06:36:25.127Z,100735.19
2019-05-29T06:38:57.505Z,100734.91
2019-05-29T06:41:29.690Z,100742.53
2019-05-29T06:44:01.889Z,100737.72
2019-05-29T06:46:34.326Z,100742.66
2019-05-29T06:49:06.293Z,100742.27
2019-05-29T06:51:39.324Z,100736.78
2019-05-29T06:54:11.229Z,100733.71
2019-05-29T06:56:43.804Z,100730.54
2019-05-29T06:59:17.015Z,100737.24
2019-05-29T07:01:49.374Z,100719.41
2019-05-29T07:04:21.440Z,100732.24
2019-05-29T07:06:53.611Z,100729.22
2019-05-29T07:09:25.695Z,100731.66
2019-05-29T07:11:58.050Z,100728.31
2019-05-29T07:14:30.331Z,100716.84
2019-05-29T07:17:02.600Z,100714.66
2019-05-29T07:19:48.877Z,100724.73
2019-05-29T07:22:08.885Z,100710.55
2019-05-29T07:24:41.208Z,100717.94
2019-05-29T07:27:13.709Z,100723.09
2019-05-29T07:29:45.490Z,100710.59
2019-05-29T07:32:17.874Z,100710.20
2019-05-29T07:35:02.769Z,100711.30
2019-05-29T07:37:24.565Z,100703.91
2019-05-29T07:39:56.619Z,100698.20
2019-05-29T07:42:28.590Z,100683.70
2019-05-29T07:45:02.005Z,100680.03
2019-05-29T07:47:35.197Z,100690.25
2019-05-29T07:50:07.655Z,100684.80
2019-05-29T07:52:45.347Z,100678.28
2019-05-29T07:55:17.822Z,100687.53
2019-05-29T07:57:50.088Z,100688.48
2019-05-29T08:00:22.158Z,100688.91
2019-05-29T08:02:55.217Z,100683.66
2019-05-29T08:05:30.179Z,100682.59
2019-05-29T08:08:02.371Z,100693.08
2019-05-29T08:10:34.201Z,100696.05
2019-05-29T08:13:07.529Z,100688.23
2019-05-29T08:15:55.291Z,100685.42
2019-05-29T08:18:14.295Z,100689.91
2019-05-29T08:20:46.263Z,100686.53
2019-05-29T08:23:18.323Z,100693.06
2019-05-29T08:25:51.782Z,100694.06
2019-05-29T08:28:24.094Z,100685.51
2019-05-29T08:30:56.686Z,100689.89
2019-05-29T08:33:28.633Z,100682.34
2019-05-29T08:36:00.802Z,100685.10
2019-05-29T08:38:33.591Z,100689.81
2019-05-29T08:41:06.377Z,100690.31
2019-05-29T08:43:38.249Z,100676.48
2019-05-29T08:46:10.186Z,100679.62
2019-05-29T08:48:41.929Z,100686.64
2019-05-29T08:51:14.061Z,100674.34
2019-05-29T08:53:46.463Z,100672.14
2019-05-29T08:56:18.256Z,100678.27
2019-05-29T08:58:51.047Z,100673.18
2019-05-29T09:01:23.005Z,100682.14
2019-05-29T09:03:55.018Z,100674.30
2019-05-29T09:06:27.162Z,100661.72
2019-05-29T09:08:59.331Z,100666.86
2019-05-29T09:11:31.594Z,100659.51
2019-05-29T09:14:03.857Z,100659.89
2019-05-29T09:16:36.027Z,100661.27
2019-05-29T09:19:07.721Z,100661.44
2019-05-29T09:21:39.749Z,100659.67
2019-05-29T09:24:12.893Z,100663.70
2019-05-29T09:26:46.547Z,100653.95
2019-05-29T09:29:21.805Z,100658.30
2019-05-29T09:31:52.220Z,100653.90
2019-05-29T09:34:24.431Z,100650.06
2019-05-29T09:36:56.716Z,100645.15
2019-05-29T09:39:28.830Z,100648.67
2019-05-29T09:42:01.205Z,100647.00
2019-05-29T09:44:38.791Z,100651.55
2019-05-29T09:47:07.390Z,100645.02
2019-05-29T09:49:39.449Z,100639.46
2019-05-29T09:52:11.519Z,100635.38
2019-05-29T09:54:43.402Z,100640.24
2019-05-29T09:57:15.752Z,100636.22
2019-05-29T09:59:48.845Z,100626.42
2019-05-29T10:02:20.737Z,100622.34
2019-05-29T10:04:54.405Z,100638.83
2019-05-29T10:07:26.366Z,100642.27
2019-05-29T10:09:59.375Z,100631.48
2019-05-29T10:12:32.087Z,100623.58
2019-05-29T10:15:08.396Z,100627.39
2019-05-29T10:17:40.469Z,100618.25
2019-05-29T10:20:12.570Z,100630.98
2019-05-29T10:22:44.858Z,100625.27
2019-05-29T10:25:16.882Z,100620.98
2019-05-29T10:27:48.634Z,100622.72
2019-05-29T10:30:20.742Z,100618.20
2019-05-29T10:32:55.344Z,100608.25
2019-05-29T10:35:28.737Z,100602.63
2019-05-29T10:38:01.304Z,100581.73
2019-05-29T10:40:33.572Z,100594.78
2019-05-29T10:43:06.992Z,100591.44
2019-05-29T10:45:40.563Z,100590.69
2019-05-29T10:48:14.406Z,100588.55
2019-05-29T10:50:52.149Z,100573.63
2019-05-29T10:53:27.371Z,100574.95
2019-05-29T10:56:01.521Z,100579.80
2019-05-29T10:58:48.589Z,100565.97
2019-05-29T11:01:11.076Z,100561.75
2019-05-29T11:03:43.039Z,100551.06
2019-05-29T11:06:15.206Z,100553.06
2019-05-29T11:08:48.028Z,100543.67
2019-05-29T11:11:20.456Z,100543.45
2019-05-29T11:13:52.997Z,100539.20
2019-05-29T11:16:25.318Z,100524.45
2019-05-29T11:18:57.756Z,100525.56
2019-05-29T11:21:29.743Z,100526.10
2019-05-29T11:24:02.319Z,100522.13
2019-05-29T11:26:35.370Z,100515.47
2019-05-29T11:29:07.888Z,100509.63
2019-05-29T11:31:39.943Z,100515.02
2019-05-29T11:34:12.016Z,100510.52
2019-05-29T11:36:44.687Z,100510.77
2019-05-29T11:39:17.497Z,100508.95
2019-05-29T11:41:50.644Z,100513.91
2019-05-29T11:44:22.645Z,100515.52
2019-05-29T11:46:56.094Z,100510.85
2019-05-29T11:49:28.096Z,100501.72
2019-05-29T11:52:22.891Z,100506.75
2019-05-29T11:54:33.650Z,100508.89
2019-05-29T11:57:05.408Z,100508.00
2019-05-29T11:59:37.824Z,100496.09
2019-05-29T12:02:09.757Z,100494.14
2019-05-29T12:04:42.050Z,100496.91
2019-05-29T12:07:14.284Z,100494.13
2019-05-29T12:09:46.556Z,100469.34
2019-05-29T12:12:18.923Z,100464.32
2019-05-29T12:15:00.616Z,100467.53
2019-05-29T12:17:25.034Z,100461.22
2019-05-29T12:19:59.859Z,100473.23
2019-05-29T12:22:30.694Z,100470.78
2019-05-29T12:25:03.038Z,100476.41
2019-05-29T12:27:34.910Z,100483.44
2019-05-29T12:30:08.391Z,100470.00
2019-05-29T12:32:42.399Z,100463.06
2019-05-29T12:35:14.373Z,100467.62
2019-05-29T12:37:46.648Z,100465.88
2019-05-29T12:40:18.918Z,100465.25
2019-05-29T12:42:50.878Z,100457.00
2019-05-29T12:45:23.354Z,100452.71
2019-05-29T12:47:56.490Z,100448.41
2019-05-29T12:50:34.069Z,100436.81
2019-05-29T12:53:03.973Z,100431.67
2019-05-29T12:55:36.016Z,100422.12
2019-05-29T12:58:08.080Z,100417.30
2019-05-29T13:00:40.173Z,100428.33
2019-05-29T13:03:12.323Z,100428.52
2019-05-29T13:05:44.299Z,100435.39
2019-05-29T13:08:16.551Z,100411.75
2019-05-29T13:10:48.544Z,100418.57
2019-05-29T13:13:20.379Z,100410.92
2019-05-29T13:15:52.553Z,100405.25
2019-05-29T13:18:24.714Z,100411.98
2019-05-29T13:20:56.746Z,100426.85
2019-05-29T13:23:42.233Z,100444.23
2019-05-29T13:26:03.596Z,100451.73
2019-05-29T13:28:35.382Z,100463.58
2019-05-29T13:31:07.603Z,100465.22
2019-05-29T13:33:39.573Z,100476.03
2019-05-29T13:36:11.637Z,100480.39
2019-05-29T13:38:43.596Z,100476.38
2019-05-29T13:41:15.562Z,100475.07
2019-05-29T13:43:47.728Z,100483.77
2019-05-29T13:46:19.599Z,100480.87
2019-05-29T13:48:51.658Z,100491.75
2019-05-29T13:51:23.819Z,100485.54
2019-05-29T13:54:03.808Z,100499.06
2019-05-29T13:56:29.486Z,100498.09
2019-05-29T13:59:02.145Z,100503.59
2019-05-29T14:01:34.234Z,100508.75
2019-05-29T14:04:06.808Z,100504.20
2019-05-29T14:06:38.941Z,100504.01
2019-05-29T14:09:11.046Z,100514.11
2019-05-29T14:11:42.911Z,100515.41
2019-05-29T14:14:14.949Z,100511.08
2019-05-29T14:16:46.947Z,100507.29
2019-05-29T14:19:19.118Z,100494.73
2019-05-29T14:21:51.531Z,100503.37
2019-05-29T14:24:29.503Z,100509.31
2019-05-29T14:26:59.360Z,100512.50
2019-05-29T14:29:32.627Z,100504.89
2019-05-29T14:32:05.131Z,100491.34
2019-05-29T14:34:37.434Z,100500.28
2019-05-29T14:37:09.943Z,100502.98
2019-05-29T14:39:41.770Z,100489.67
2019-05-29T14:42:13.732Z,100498.84
2019-05-29T14:44:46.820Z,100487.00
2019-05-29T14:47:19.029Z,100496.19
2019-05-29T14:49:51.170Z,100493.88
2019-05-29T14:52:23.323Z,100497.30
2019-05-29T14:54:55.386Z,100498.20
2019-05-29T14:57:27.670Z,100499.17
2019-05-29T14:59:59.632Z,100502.31
2019-05-29T15:02:31.784Z,100504.48
2019-05-29T15:05:05.495Z,100505.13
2019-05-29T15:07:37.462Z,100505.83
2019-05-29T15:10:23.915Z,100504.91
2019-05-29T15:12:43.780Z,100509.92
2019-05-29T15:15:16.783Z,100515.11
2019-05-29T15:17:49.516Z,100519.80
2019-05-29T15:20:23.591Z,100522.56
2019-05-29T15:22:55.595Z,100526.25
2019-05-29T15:25:28.176Z,100527.51
2019-05-29T15:28:00.338Z,100525.84
2019-05-29T15:30:32.925Z,100528.28
2019-05-29T15:33:06.336Z,100529.55
2019-05-29T15:35:38.480Z,100519.70
2019-05-29T15:38:10.801Z,100520.31
2019-05-29T15:40:42.923Z,100523.28
2019-05-29T15:43:15.401Z,100521.58
2019-05-29T15:45:47.862Z,100524.88
2019-05-29T15:48:20.146Z,100516.66
2019-05-29T15:50:52.519Z,100519.63
2019-05-29T15:53:24.997Z,100520.21
2019-05-29T15:55:57.663Z,100514.66
2019-05-29T15:58:29.752Z,100516.85
2019-05-29T16:01:01.715Z,100511.53
2019-05-29T16:03:34.489Z,100518.47
2019-05-29T16:06:06.153Z,100505.64
2019-05-29T16:08:37.844Z,100512.20
2019-05-29T16:11:10.577Z,100505.53
2019-05-29T16:13:42.757Z,100502.94
2019-05-29T16:16:15.332Z,100504.48
2019-05-29T16:18:47.401Z,100503.39
2019-05-29T16:21:19.468Z,100502.30
2019-05-29T16:23:51.740Z,100500.77
2019-05-29T16:26:24.524Z,100495.43
2019-05-29T16:28:56.597Z,100498.45
2019-05-29T16:31:28.865Z,100493.05
2019-05-29T16:34:01.426Z,100492.16
2019-05-29T16:36:34.555Z,100498.86
2019-05-29T16:39:07.995Z,100488.88
2019-05-29T16:41:40.038Z,100489.98
2019-05-29T16:44:12.180Z,100490.47
2019-05-29T16:46:44.353Z,100493.89
2019-05-29T16:49:16.659Z,100486.00
2019-05-29T16:51:48.479Z,100488.26
2019-05-29T16:54:21.046Z,100488.48
2019-05-29T16:56:52.817Z,100488.63
2019-05-29T16:59:29.039Z,100488.27
2019-05-29T17:01:58.887Z,100487.33
2019-05-29T17:04:30.849Z,100487.33
2019-05-29T17:07:03.185Z,100492.71
2019-05-29T17:09:35.492Z,100491.75
2019-05-29T17:12:07.348Z,100491.89
2019-05-29T17:14:39.140Z,100486.39
2019-05-29T17:17:11.473Z,100485.23
2019-05-29T17:19:43.644Z,100487.38
2019-05-29T17:22:16.556Z,100493.42
2019-05-29T17:24:48.799Z,100489.64
2019-05-29T17:27:21.329Z,100491.66
2019-05-29T17:29:53.342Z,100486.16
2019-05-29T17:32:25.583Z,100485.30
2019-05-29T17:34:57.984Z,100495.59
2019-05-29T17:37:30.249Z,100491.39
2019-05-29T17:40:02.631Z,100493.77
2019-05-29T17:42:34.686Z,100498.96
2019-05-29T17:45:08.091Z,100499.52
2019-05-29T17:47:40.919Z,100497.99
2019-05-29T17:50:13.466Z,100501.64
2019-05-29T17:52:45.605Z,100513.34
2019-05-29T17:55:19.996Z,100510.28
2019-05-29T17:57:51.280Z,100519.05
2019-05-29T18:00:26.583Z,100521.58
2019-05-29T18:02:58.796Z,100524.50
2019-05-29T18:05:31.172Z,100525.73
2019-05-29T18:08:03.534Z,100526.62
2019-05-29T18:10:35.496Z,100526.55
2019-05-29T18:13:07.251Z,100530.88
2019-05-29T18:15:40.140Z,100530.77
2019-05-29T18:18:12.646Z,100530.70
2019-05-29T18:20:45.183Z,100539.93
2019-05-29T18:23:17.580Z,100542.95
2019-05-29T18:25:49.425Z,100536.42
2019-05-29T18:28:22.060Z,100537.81
2019-05-29T18:30:54.363Z,100537.30
2019-05-29T18:33:26.805Z,100539.69
2019-05-29T18:35:58.920Z,100538.31
2019-05-29T18:38:31.077Z,100540.28
2019-05-29T18:41:03.295Z,100545.17
2019-05-29T18:43:35.405Z,100556.63
2019-05-29T18:46:08.702Z,100558.36
2019-05-29T18:48:40.465Z,100554.31
2019-05-29T18:51:12.825Z,100554.20
2019-05-29T18:53:44.483Z,100554.67
2019-05-29T18:56:16.659Z,100553.61
2019-05-29T18:58:49.024Z,100561.37
2019-05-29T19:01:21.537Z,100562.22
2019-05-29T19:03:53.682Z,100563.22
2019-05-29T19:06:26.147Z,100562.14
2019-05-29T19:08:58.827Z,100568.05
2019-05-29T19:11:31.985Z,100561.61
2019-05-29T19:14:05.161Z,100561.47
2019-05-29T19:16:39.624Z,100556.42
2019-05-29T19:19:11.485Z,100550.59
2019-05-29T19:21:43.543Z,100556.52
2019-05-29T19:24:15.923Z,100561.02
2019-05-29T19:26:48.559Z,100558.63
2019-05-29T19:29:23.003Z,100556.28
2019-05-29T19:31:55.567Z,100548.96
2019-05-29T19:34:29.412Z,100542.86
2019-05-29T19:37:02.468Z,100545.64
2019-05-29T19:39:34.785Z,100558.55
2019-05-29T19:42:07.248Z,100557.77
2019-05-29T19:44:39.602Z,100553.48
2019-05-29T19:47:11.776Z,100553.15
2019-05-29T19:49:43.939Z,100549.05
2019-05-29T19:52:16.920Z,100549.36
2019-05-29T19:54:49.297Z,100551.93
2019-05-29T19:57:21.665Z,100547.28
2019-05-29T19:59:53.747Z,100550.71
2019-05-29T20:02:26.489Z,100542.74
2019-05-29T20:04:58.673Z,100542.65
2019-05-29T20:07:31.124Z,100549.84
2019-05-29T20:10:03.419Z,100544.78
2019-05-29T20:12:35.737Z,100548.63
2019-05-29T20:15:07.749Z,100547.66
2019-05-29T20:17:39.926Z,100549.14
2019-05-29T20:20:12.058Z,100549.66
2019-05-29T20:22:44.154Z,100549.00
2019-05-29T20:25:16.419Z,100549.42
2019-05-29T20:27:48.281Z,100545.33
2019-05-29T20:30:20.241Z,100550.25
2019-05-29T20:32:52.919Z,100551.85
2019-05-29T20:35:25.195Z,100554.09
2019-05-29T20:37:58.179Z,100560.28
2019-05-29T20:40:31.037Z,100555.86
2019-05-29T20:43:03.329Z,100552.32
2019-05-29T20:45:35.620Z,100553.89
2019-05-29T20:48:07.693Z,100553.20
2019-05-29T20:50:39.929Z,100548.66
2019-05-29T20:53:12.111Z,100556.18
2019-05-29T20:55:44.162Z,100542.24
2019-05-29T20:58:24.513Z,100546.55
2019-05-29T21:00:50.521Z,100542.82
2019-05-29T21:03:22.609Z,100547.73
2019-05-29T21:05:54.784Z,100543.27
2019-05-29T21:08:27.678Z,100546.18
2019-05-29T21:11:00.073Z,100540.82
2019-05-29T21:13:35.303Z,100542.22
2019-05-29T21:16:07.400Z,100542.08
2019-05-29T21:18:39.924Z,100539.16
2019-05-29T21:21:11.776Z,100544.85
2019-05-29T21:23:44.783Z,100547.81
2019-05-29T21:26:16.927Z,100556.18
2019-05-29T21:28:50.760Z,100551.90
2019-05-29T21:31:22.801Z,100557.57
2019-05-29T21:33:55.069Z,100552.87
2019-05-29T21:36:26.830Z,100552.66
2019-05-29T21:38:58.992Z,100548.08
2019-05-29T21:41:31.775Z,100547.31
2019-05-29T21:44:03.737Z,100543.05
2019-05-29T21:46:36.700Z,100541.58
2019-05-29T21:49:08.488Z,100547.28
2019-05-29T21:51:41.494Z,100550.59
2019-05-29T21:54:13.546Z,100552.08
2019-05-29T21:56:45.867Z,100563.45
2019-05-29T21:59:17.762Z,100565.77
2019-05-29T22:01:49.443Z,100569.10
2019-05-29T22:04:21.790Z,100568.58
2019-05-29T22:06:54.903Z,100569.89
2019-05-29T22:09:27.154Z,100571.66
2019-05-29T22:12:00.512Z,100568.78
2019-05-29T22:14:33.542Z,100565.73
2019-05-29T22:17:05.919Z,100561.74
2019-05-29T22:19:37.735Z,100561.30
2019-05-29T22:22:09.817Z,100567.40
2019-05-29T22:24:41.887Z,100566.95
2019-05-29T22:27:14.078Z,100569.22
2019-05-29T22:29:46.260Z,100570.03
2019-05-29T22:32:18.523Z,100571.42
2019-05-29T22:34:52.082Z,100576.03
2019-05-29T22:37:24.489Z,100575.23
2019-05-29T22:39:57.737Z,100578.45
2019-05-29T22:42:29.646Z,100575.87
2019-05-29T22:45:02.220Z,100572.39
2019-05-29T22:47:34.397Z,100577.09
2019-05-29T22:50:07.185Z,100570.13
2019-05-29T22:52:38.943Z,100573.47
2019-05-29T22:55:10.967Z,100573.20
2019-05-29T22:57:43.177Z,100580.17
2019-05-29T23:00:16.593Z,100576.41
2019-05-29T23:02:48.946Z,100578.33
2019-05-29T23:05:21.115Z,100581.33
2019-05-29T23:07:54.046Z,100584.53
2019-05-29T23:10:25.716Z,100581.61
2019-05-29T23:13:01.109Z,100584.67
2019-05-29T23:15:32.367Z,100576.73
2019-05-29T23:18:04.822Z,100582.20
2019-05-29T23:20:36.784Z,100585.72
2019-05-29T23:23:08.970Z,100589.97
2019-05-29T23:25:40.864Z,100580.81
2019-05-29T23:28:13.897Z,100584.29
2019-05-29T23:30:45.867Z,100585.75
2019-05-29T23:33:18.245Z,100590.48
2019-05-29T23:35:50.109Z,100587.03
2019-05-29T23:38:22.255Z,100587.24
2019-05-29T23:40:55.282Z,100591.94
2019-05-29T23:43:27.128Z,100589.57
2019-05-29T23:45:59.458Z,100592.07
2019-05-29T23:48:32.019Z,100586.56
2019-05-29T23:51:04.139Z,100589.63
2019-05-29T23:53:36.133Z,100590.41
2019-05-29T23:56:08.280Z,100587.89
2019-05-29T23:58:40.242Z,100585.73
